Time;durP1;ratioP1;P1;durP2;ratioP2;P2;SDS_P1;SDS_P2;PMS_P1;PMS_P2;Temp;Humidity;BMP_temperature;BMP_pressure;BME280_temperature;BME280_humidity;BME280_pressure;Samples;Min_cycle;Max_cycle;Signal;HPM_P1;HPM_P2
2022/10/13 00:09:15;;;;;;;1.70;1.03;;;20.40;44.80;;;;;;20711605;28;20057;-79
2022/10/13 00:19:15;;;;;;;1.77;0.90;;;20.30;45.30;;;;;;20746266;28;20311;-78
2022/10/13 00:29:16;;;;;;;1.00;0.70;;;20.30;44.90;;;;;;20745530;28;20288;-78
2022/10/13 00:39:17;;;;;;;2.47;1.17;;;20.30;44.80;;;;;;20748109;28;20029;-78
2022/10/13 00:49:17;;;;;;;2.95;1.10;;;20.30;44.90;;;;;;20729098;28;20347;-78
2022/10/13 00:59:26;;;;;;;1.75;0.80;;;20.20;44.90;;;;;;20709216;28;20477;-78
2022/10/13 01:09:33;;;;;;;2.97;1.00;;;20.30;44.90;;;;;;20711600;28;20064;-79
2022/10/13 01:20:12;;;;;;;2.55;1.40;;;20.20;44.90;;;;;;20711567;28;20025;-78
2022/10/13 01:30:15;;;;;;;1.75;1.08;;;20.20;45.00;;;;;;20741333;28;20042;-78
2022/10/13 01:40:30;;;;;;;1.85;1.05;;;20.20;44.90;;;;;;20740483;28;20088;-78
2022/10/13 01:50:31;;;;;;;2.20;1.10;;;20.10;44.90;;;;;;21088226;22;20118;-85
2022/10/13 02:00:34;;;;;;;3.90;1.17;;;20.10;45.00;;;;;;20639714;28;20073;-83
2022/10/13 02:11:13;;;;;;;2.22;1.00;;;20.20;45.00;;;;;;20624486;28;20045;-82
2022/10/13 02:21:14;;;;;;;3.15;1.02;;;20.10;45.00;;;;;;20627002;28;20043;-83
2022/10/13 02:31:16;;;;;;;4.05;1.10;;;20.10;45.00;;;;;;20551379;28;20085;-83
2022/10/13 02:41:18;;;;;;;2.45;0.82;;;20.10;45.00;;;;;;20550404;28;20035;-83
2022/10/13 02:51:24;;;;;;;2.22;0.82;;;20.10;45.00;;;;;;20600570;28;20038;-83
2022/10/13 03:01:25;;;;;;;1.08;0.77;;;20.00;44.90;;;;;;20658960;28;20420;-83
2022/10/13 03:11:28;;;;;;;3.00;1.10;;;20.00;45.00;;;;;;20651317;28;20066;-83
2022/10/13 03:21:29;;;;;;;1.60;1.10;;;20.00;45.00;;;;;;20586257;28;20043;-83
2022/10/13 03:31:32;;;;;;;1.35;0.98;;;20.00;45.00;;;;;;20578012;28;20065;-82
2022/10/13 03:41:38;;;;;;;2.42;1.42;;;20.00;45.00;;;;;;20595775;28;20121;-83
2022/10/13 03:51:41;;;;;;;2.13;0.88;;;19.90;45.00;;;;;;20577422;28;20074;-83
2022/10/13 04:01:41;;;;;;;3.20;1.38;;;19.90;45.00;;;;;;20583849;28;20389;-82
2022/10/13 04:11:43;;;;;;;2.83;1.30;;;19.90;45.10;;;;;;20558909;28;20045;-83
2022/10/13 04:21:44;;;;;;;2.03;1.00;;;20.50;44.10;;;;;;20587477;28;20039;-76
2022/10/13 04:31:44;;;;;;;1.27;1.08;;;20.70;43.60;;;;;;20554992;28;20544;-84
2022/10/13 04:41:45;;;;;;;1.13;0.85;;;21.00;43.20;;;;;;20546028;28;20484;-82
2022/10/13 04:51:47;;;;;;;2.28;1.20;;;21.20;42.70;;;;;;20665960;28;20034;-83
2022/10/13 05:01:48;;;;;;;6.50;1.50;;;21.30;42.50;;;;;;20625603;28;20075;-84
2022/10/13 05:11:48;;;;;;;2.20;1.20;;;21.20;42.60;;;;;;20554230;28;20043;-75
2022/10/13 05:21:49;;;;;;;1.92;1.27;;;21.30;42.30;;;;;;20568360;28;20558;-80
2022/10/13 05:31:52;;;;;;;1.17;1.08;;;21.30;42.40;;;;;;20554549;28;20030;-78
2022/10/13 05:41:53;;;;;;;2.17;0.98;;;21.30;42.50;;;;;;20555793;28;20038;-81
2022/10/13 05:52:01;;;;;;;2.67;1.20;;;21.10;42.50;;;;;;20563464;28;20094;-80
2022/10/13 06:02:02;;;;;;;2.13;1.08;;;21.10;42.70;;;;;;20540828;28;20038;-82
2022/10/13 06:12:04;;;;;;;2.75;1.20;;;21.00;42.80;;;;;;20565419;28;20041;-82
2022/10/13 06:22:06;;;;;;;1.45;1.10;;;21.00;43.00;;;;;;20550585;28;20047;-83
2022/10/13 06:32:08;;;;;;;2.55;1.27;;;20.90;43.10;;;;;;20585131;28;20380;-82
2022/10/13 06:42:10;;;;;;;2.25;1.20;;;20.90;43.30;;;;;;20661635;28;20116;-83
2022/10/13 06:52:15;;;;;;;1.15;1.05;;;20.80;43.60;;;;;;20644568;28;20373;-83
2022/10/13 07:02:16;;;;;;;2.13;0.95;;;20.80;43.70;;;;;;20588173;28;20039;-83
2022/10/13 07:12:16;;;;;;;4.05;1.52;;;20.80;43.80;;;;;;20561261;28;20039;-82
2022/10/13 07:22:17;;;;;;;2.08;1.45;;;20.80;43.90;;;;;;20560316;28;20398;-81
2022/10/13 07:32:21;;;;;;;2.08;1.02;;;20.70;44.00;;;;;;20603267;28;20129;-81
2022/10/13 07:42:22;;;;;;;1.70;1.23;;;20.70;44.10;;;;;;20639084;28;20050;-81
2022/10/13 07:52:23;;;;;;;2.40;1.50;;;20.70;44.30;;;;;;20664436;28;20088;-83
2022/10/13 08:02:25;;;;;;;1.98;1.10;;;20.60;44.40;;;;;;20573114;28;20552;-82
2022/10/13 08:12:25;;;;;;;1.83;0.98;;;20.60;44.50;;;;;;20653369;28;20117;-83
2022/10/13 08:22:26;;;;;;;2.05;1.20;;;20.60;45.30;;;;;;20645344;28;20045;-81
2022/10/13 08:32:28;;;;;;;1.80;1.27;;;20.50;44.70;;;;;;20574608;28;20027;-83
2022/10/13 08:42:29;;;;;;;5.03;1.38;;;20.50;44.90;;;;;;20588793;28;20201;-83
2022/10/13 08:52:46;;;;;;;2.38;1.45;;;20.50;45.00;;;;;;20615887;28;20085;-78
2022/10/13 09:02:46;;;;;;;2.25;1.35;;;20.50;45.20;;;;;;20572374;28;20674;-82
2022/10/13 09:12:48;;;;;;;2.67;1.30;;;20.40;45.30;;;;;;20594431;28;20101;-82
2022/10/13 09:23:19;;;;;;;2.07;1.30;;;20.40;45.40;;;;;;20589032;28;20129;-82
2022/10/13 09:33:22;;;;;;;3.20;1.15;;;20.40;45.50;;;;;;20622963;28;20286;-82
2022/10/13 09:43:44;;;;;;;2.10;1.20;;;20.50;45.50;;;;;;20537515;28;20129;-82
2022/10/13 09:53:52;;;;;;;1.45;1.10;;;20.50;45.50;;;;;;20585894;28;20039;-77
2022/10/13 10:03:53;;;;;;;2.25;1.10;;;20.60;45.40;;;;;;20567170;28;20039;-78
2022/10/13 10:13:54;;;;;;;1.70;1.20;;;20.70;45.30;;;;;;20582460;28;20513;-78
2022/10/13 10:24:13;;;;;;;3.45;1.58;;;20.80;45.10;;;;;;20603343;28;20062;-78
2022/10/13 10:34:27;;;;;;;3.25;1.10;;;20.90;45.10;;;;;;20577631;28;20030;-73
2022/10/13 10:44:34;;;;;;;2.33;1.15;;;20.90;45.00;;;;;;20647864;28;20031;-73
2022/10/13 10:54:48;;;;;;;2.33;1.42;;;21.00;45.00;;;;;;20559737;28;20070;-70
2022/10/13 11:04:48;;;;;;;2.08;1.00;;;21.00;45.00;;;;;;20575800;28;20070;-75
2022/10/13 11:15:12;;;;;;;4.97;1.90;;;21.00;45.10;;;;;;20605560;28;20092;-77
2022/10/13 11:25:40;;;;;;;1.58;1.13;;;20.90;45.20;;;;;;20633873;28;20049;-77
2022/10/13 11:35:41;;;;;;;1.30;1.00;;;21.00;45.20;;;;;;20640744;28;20042;-79
2022/10/13 11:45:57;;;;;;;2.83;1.20;;;21.10;45.20;;;;;;20583952;28;20093;-78
2022/10/13 11:56:00;;;;;;;1.77;1.25;;;21.10;45.20;;;;;;20591303;28;20038;-77
2022/10/13 12:06:19;;;;;;;2.30;1.10;;;21.20;45.10;;;;;;20559840;28;20378;-80
2022/10/13 12:16:20;;;;;;;2.60;1.50;;;21.20;45.00;;;;;;20658583;28;20030;-77
2022/10/13 12:26:24;;;;;;;2.15;1.13;;;21.30;45.00;;;;;;20644455;28;20044;-76
2022/10/13 12:36:32;;;;;;;4.45;1.67;;;21.40;44.80;;;;;;20583111;28;20122;-76
2022/10/13 12:46:46;;;;;;;2.20;1.52;;;21.40;44.90;;;;;;20605758;28;20042;-75
2022/10/13 12:56:46;;;;;;;2.50;1.10;;;21.50;44.90;;;;;;20586042;28;20048;-75
2022/10/13 13:07:03;;;;;;;3.43;1.20;;;21.50;44.70;;;;;;20541689;28;20136;-75
2022/10/13 13:17:05;;;;;;;3.50;1.20;;;21.50;44.70;;;;;;20628808;28;20288;-74
2022/10/13 13:27:26;;;;;;;1.92;1.15;;;21.50;44.70;;;;;;20629360;28;20042;-74
2022/10/13 13:37:46;;;;;;;1.95;0.80;;;21.50;45.00;;;;;;20582705;28;20035;-74
2022/10/13 13:47:47;;;;;;;2.65;1.10;;;21.50;45.20;;;;;;20579623;28;20367;-74
2022/10/13 13:57:49;;;;;;;2.63;1.23;;;21.50;45.20;;;;;;20579022;28;20047;-75
2022/10/13 14:07:52;;;;;;;3.60;1.13;;;21.50;45.20;;;;;;20646055;28;20038;-72
2022/10/13 14:17:53;;;;;;;5.00;1.33;;;21.60;45.20;;;;;;20658291;28;20073;-74
2022/10/13 14:27:53;;;;;;;3.00;1.30;;;21.60;45.70;;;;;;20586842;28;20490;-72
2022/10/13 14:37:54;;;;;;;5.23;1.77;;;21.50;45.80;;;;;;20576674;28;20038;-72
2022/10/13 14:47:54;;;;;;;5.55;1.77;;;21.50;46.10;;;;;;20560153;28;20042;-73
2022/10/13 14:57:55;;;;;;;3.07;1.60;;;21.50;46.70;;;;;;20544377;28;20038;-75
2022/10/13 15:07:56;;;;;;;5.60;1.75;;;21.50;46.00;;;;;;20638822;28;20783;-75
2022/10/13 15:17:56;;;;;;;1.52;1.08;;;21.60;46.00;;;;;;20575450;28;20089;-82
2022/10/13 15:27:57;;;;;;;2.97;1.25;;;21.60;46.00;;;;;;20594403;28;20077;-75
2022/10/13 15:37:58;;;;;;;1.57;1.33;;;21.50;45.90;;;;;;20588848;28;20181;-77
2022/10/13 15:47:58;;;;;;;3.63;1.10;;;21.50;45.90;;;;;;20530427;28;20310;-79
2022/10/13 15:57:59;;;;;;;2.55;0.90;;;21.50;45.90;;;;;;20608403;28;20465;-77
2022/10/13 16:08:00;;;;;;;2.55;1.00;;;21.50;46.00;;;;;;20614951;28;20121;-78
2022/10/13 16:18:01;;;;;;;2.55;1.40;;;21.50;46.00;;;;;;20647816;28;20066;-75
2022/10/13 16:28:01;;;;;;;1.63;1.05;;;21.40;46.00;;;;;;20584629;28;20125;-82
2022/10/13 16:38:02;;;;;;;1.13;0.80;;;21.50;46.10;;;;;;20553295;28;20125;-82
2022/10/13 16:48:02;;;;;;;2.00;1.27;;;21.40;46.00;;;;;;20552180;28;20053;-82
2022/10/13 16:58:03;;;;;;;1.50;1.07;;;21.40;46.00;;;;;;20600104;28;20492;-81
2022/10/13 17:08:04;;;;;;;1.00;0.77;;;21.40;46.10;;;;;;20547709;28;20979;-82
2022/10/13 17:18:04;;;;;;;2.13;1.20;;;21.40;46.20;;;;;;20546950;28;20126;-73
2022/10/13 17:28:05;;;;;;;2.20;1.17;;;21.30;46.30;;;;;;20631752;28;20212;-76
2022/10/13 17:38:06;;;;;;;2.08;1.20;;;21.20;46.50;;;;;;20544785;28;20290;-75
2022/10/13 17:48:07;;;;;;;1.83;0.90;;;21.10;46.60;;;;;;20523887;28;20529;-75
2022/10/13 17:58:09;;;;;;;2.10;1.27;;;21.10;46.80;;;;;;20560649;28;20062;-75
2022/10/13 18:08:10;;;;;;;1.90;1.02;;;21.00;46.80;;;;;;20630563;28;20121;-76
2022/10/13 18:18:12;;;;;;;1.67;1.05;;;21.00;47.00;;;;;;20574556;28;20038;-75
2022/10/13 18:28:12;;;;;;;1.02;0.90;;;20.90;47.00;;;;;;20583252;28;20045;-75
2022/10/13 18:38:17;;;;;;;1.10;0.80;;;20.90;47.10;;;;;;20592405;28;20461;-75
2022/10/13 18:48:18;;;;;;;2.10;1.57;;;20.90;47.20;;;;;;20583697;28;20528;-76
2022/10/13 18:58:19;;;;;;;1.17;1.08;;;20.90;47.30;;;;;;20614791;28;20101;-74
2022/10/13 19:08:20;;;;;;;1.27;0.90;;;20.80;47.40;;;;;;20541934;28;20039;-74
2022/10/13 19:18:20;;;;;;;1.50;0.93;;;20.70;47.40;;;;;;20557145;28;20122;-74
2022/10/13 19:28:22;;;;;;;1.92;1.20;;;20.80;47.60;;;;;;20634235;28;20397;-74
2022/10/13 19:38:27;;;;;;;3.53;1.20;;;20.70;47.60;;;;;;20585563;28;20381;-74
2022/10/13 19:48:28;;;;;;;1.27;0.80;;;20.70;47.70;;;;;;20571980;28;20042;-74
2022/10/13 19:58:29;;;;;;;1.60;1.20;;;20.70;47.80;;;;;;20600770;28;20037;-74
2022/10/13 20:08:30;;;;;;;2.40;1.20;;;20.60;47.90;;;;;;20590979;28;20109;-74
2022/10/13 20:18:30;;;;;;;1.35;0.80;;;20.60;48.00;;;;;;20568912;28;20042;-74
2022/10/13 20:28:31;;;;;;;2.08;1.50;;;20.50;48.00;;;;;;20552122;28;20043;-74
2022/10/13 20:38:34;;;;;;;2.72;1.00;;;20.50;48.20;;;;;;20564849;28;20396;-74
2022/10/13 20:48:37;;;;;;;1.27;1.00;;;20.50;48.30;;;;;;20583405;28;20121;-74
2022/10/13 20:58:38;;;;;;;2.53;1.33;;;20.50;48.40;;;;;;20597031;28;20172;-74
2022/10/13 21:08:39;;;;;;;1.67;1.13;;;20.50;48.50;;;;;;20531965;28;20031;-74
2022/10/13 21:18:42;;;;;;;2.42;1.45;;;20.40;48.50;;;;;;20564842;28;20112;-74
2022/10/13 21:28:42;;;;;;;1.95;1.55;;;20.40;48.60;;;;;;20572580;28;20074;-74
2022/10/13 21:38:43;;;;;;;3.27;1.00;;;20.40;48.90;;;;;;20632049;28;20510;-74
2022/10/13 21:48:45;;;;;;;3.75;1.40;;;20.40;48.80;;;;;;20557921;28;20296;-74
2022/10/13 21:58:46;;;;;;;1.80;1.05;;;20.30;48.80;;;;;;20530651;28;20130;-74
2022/10/13 22:08:49;;;;;;;3.45;1.40;;;20.30;48.90;;;;;;20651196;28;20038;-74
2022/10/13 22:18:55;;;;;;;2.75;1.80;;;20.30;49.00;;;;;;20644351;28;20034;-74
2022/10/13 22:28:57;;;;;;;1.77;1.45;;;20.20;49.10;;;;;;20603115;28;20035;-74
2022/10/13 22:39:02;;;;;;;1.52;1.00;;;20.30;49.20;;;;;;20561208;28;20109;-74
2022/10/13 22:49:03;;;;;;;1.47;1.10;;;20.20;49.30;;;;;;20556030;28;20093;-74
2022/10/13 22:59:05;;;;;;;1.83;1.48;;;20.20;49.30;;;;;;20559926;28;20489;-74
2022/10/13 23:09:08;;;;;;;2.10;1.40;;;20.20;49.40;;;;;;20529388;28;20805;-74
2022/10/13 23:19:09;;;;;;;1.67;1.20;;;20.20;49.60;;;;;;20556965;28;20093;-73
2022/10/13 23:29:09;;;;;;;2.00;1.33;;;20.10;49.60;;;;;;20598911;28;20481;-73
2022/10/13 23:39:10;;;;;;;1.80;1.20;;;20.10;49.70;;;;;;20669007;28;20429;-74
2022/10/13 23:49:12;;;;;;;3.45;1.67;;;20.10;49.70;;;;;;20546298;28;20097;-74
2022/10/13 23:59:12;;;;;;;2.33;1.70;;;20.00;49.80;;;;;;20554459;28;20146;-74
